sensor_id;sensor_type;location;lat;lon;timestamp;P1;durP1;ratioP1;P2;durP2;ratioP2
37791;SDS011;29527;55.766;37.570;2023-09-07T00:02:18;2.10;;;0.52;;
37791;SDS011;29527;55.766;37.570;2023-09-07T00:04:43;2.10;;;0.50;;
37791;SDS011;29527;55.766;37.570;2023-09-07T00:07:09;1.55;;;0.70;;
37791;SDS011;29527;55.766;37.570;2023-09-07T00:09:34;2.42;;;0.80;;
37791;SDS011;29527;55.766;37.570;2023-09-07T00:12:00;3.00;;;0.80;;
37791;SDS011;29527;55.766;37.570;2023-09-07T00:14:25;2.78;;;0.60;;
37791;SDS011;29527;55.766;37.570;2023-09-07T00:16:51;1.45;;;0.70;;
37791;SDS011;29527;55.766;37.570;2023-09-07T00:19:17;1.48;;;0.70;;
37791;SDS011;29527;55.766;37.570;2023-09-07T00:21:42;1.90;;;0.68;;
37791;SDS011;29527;55.766;37.570;2023-09-07T00:24:08;1.60;;;0.90;;
37791;SDS011;29527;55.766;37.570;2023-09-07T00:26:34;2.63;;;1.08;;
37791;SDS011;29527;55.766;37.570;2023-09-07T00:29:00;3.08;;;1.95;;
37791;SDS011;29527;55.766;37.570;2023-09-07T00:31:25;2.40;;;1.70;;
37791;SDS011;29527;55.766;37.570;2023-09-07T00:33:51;4.47;;;2.45;;
37791;SDS011;29527;55.766;37.570;2023-09-07T00:36:17;6.72;;;3.13;;
37791;SDS011;29527;55.766;37.570;2023-09-07T00:38:43;5.20;;;3.08;;
37791;SDS011;29527;55.766;37.570;2023-09-07T00:41:09;5.32;;;2.58;;
37791;SDS011;29527;55.766;37.570;2023-09-07T00:43:34;2.42;;;1.35;;
37791;SDS011;29527;55.766;37.570;2023-09-07T00:46:00;2.65;;;1.20;;
37791;SDS011;29527;55.766;37.570;2023-09-07T00:48:25;1.30;;;1.05;;
37791;SDS011;29527;55.766;37.570;2023-09-07T00:50:51;2.53;;;0.88;;
37791;SDS011;29527;55.766;37.570;2023-09-07T00:53:17;2.58;;;0.90;;
37791;SDS011;29527;55.766;37.570;2023-09-07T00:55:43;3.42;;;0.85;;
37791;SDS011;29527;55.766;37.570;2023-09-07T00:58:09;1.77;;;1.02;;
37791;SDS011;29527;55.766;37.570;2023-09-07T01:00:37;1.67;;;0.80;;
37791;SDS011;29527;55.766;37.570;2023-09-07T01:03:02;4.45;;;0.90;;
37791;SDS011;29527;55.766;37.570;2023-09-07T01:05:41;2.42;;;0.98;;
37791;SDS011;29527;55.766;37.570;2023-09-07T01:08:23;2.10;;;1.00;;
37791;SDS011;29527;55.766;37.570;2023-09-07T01:10:57;2.22;;;1.00;;
37791;SDS011;29527;55.766;37.570;2023-09-07T01:13:22;1.45;;;0.75;;
37791;SDS011;29527;55.766;37.570;2023-09-07T01:15:48;3.28;;;1.10;;
37791;SDS011;29527;55.766;37.570;2023-09-07T01:18:14;2.83;;;1.13;;
37791;SDS011;29527;55.766;37.570;2023-09-07T01:20:41;2.33;;;1.00;;
37791;SDS011;29527;55.766;37.570;2023-09-07T01:23:08;2.15;;;0.95;;
37791;SDS011;29527;55.766;37.570;2023-09-07T01:25:33;2.95;;;1.15;;
37791;SDS011;29527;55.766;37.570;2023-09-07T01:27:59;2.72;;;0.90;;
37791;SDS011;29527;55.766;37.570;2023-09-07T01:30:26;2.50;;;0.90;;
37791;SDS011;29527;55.766;37.570;2023-09-07T01:32:52;1.95;;;0.82;;
37791;SDS011;29527;55.766;37.570;2023-09-07T01:35:18;1.90;;;0.93;;
37791;SDS011;29527;55.766;37.570;2023-09-07T01:37:47;2.75;;;1.00;;
37791;SDS011;29527;55.766;37.570;2023-09-07T01:40:12;2.28;;;1.08;;
37791;SDS011;29527;55.766;37.570;2023-09-07T01:42:38;2.35;;;0.80;;
37791;SDS011;29527;55.766;37.570;2023-09-07T01:45:04;4.78;;;1.10;;
37791;SDS011;29527;55.766;37.570;2023-09-07T01:47:30;3.05;;;1.65;;
37791;SDS011;29527;55.766;37.570;2023-09-07T01:49:56;3.45;;;1.10;;
37791;SDS011;29527;55.766;37.570;2023-09-07T01:52:22;3.42;;;1.20;;
37791;SDS011;29527;55.766;37.570;2023-09-07T01:54:47;3.92;;;1.02;;
37791;SDS011;29527;55.766;37.570;2023-09-07T01:57:13;4.80;;;1.10;;
37791;SDS011;29527;55.766;37.570;2023-09-07T01:59:38;3.13;;;1.20;;
37791;SDS011;29527;55.766;37.570;2023-09-07T02:02:04;4.63;;;1.52;;
37791;SDS011;29527;55.766;37.570;2023-09-07T02:04:29;4.57;;;2.17;;
37791;SDS011;29527;55.766;37.570;2023-09-07T02:06:55;4.88;;;2.20;;
37791;SDS011;29527;55.766;37.570;2023-09-07T02:09:20;4.55;;;1.52;;
37791;SDS011;29527;55.766;37.570;2023-09-07T02:11:46;7.43;;;1.50;;
37791;SDS011;29527;55.766;37.570;2023-09-07T02:14:11;4.65;;;2.05;;
37791;SDS011;29527;55.766;37.570;2023-09-07T02:16:37;4.22;;;1.75;;
37791;SDS011;29527;55.766;37.570;2023-09-07T02:19:03;3.67;;;1.40;;
37791;SDS011;29527;55.766;37.570;2023-09-07T02:21:30;5.28;;;1.23;;
37791;SDS011;29527;55.766;37.570;2023-09-07T02:23:56;3.10;;;1.27;;
37791;SDS011;29527;55.766;37.570;2023-09-07T02:26:21;7.50;;;1.45;;
37791;SDS011;29527;55.766;37.570;2023-09-07T02:28:47;5.45;;;1.25;;
37791;SDS011;29527;55.766;37.570;2023-09-07T02:31:12;2.90;;;0.88;;
37791;SDS011;29527;55.766;37.570;2023-09-07T02:33:38;1.48;;;1.00;;
37791;SDS011;29527;55.766;37.570;2023-09-07T02:36:04;2.63;;;0.90;;
37791;SDS011;29527;55.766;37.570;2023-09-07T02:38:29;1.98;;;0.77;;
37791;SDS011;29527;55.766;37.570;2023-09-07T02:40:55;3.88;;;1.08;;
37791;SDS011;29527;55.766;37.570;2023-09-07T02:43:21;2.97;;;0.98;;
37791;SDS011;29527;55.766;37.570;2023-09-07T02:45:48;3.55;;;1.00;;
37791;SDS011;29527;55.766;37.570;2023-09-07T02:48:15;1.52;;;0.90;;
37791;SDS011;29527;55.766;37.570;2023-09-07T02:50:40;2.90;;;0.93;;
37791;SDS011;29527;55.766;37.570;2023-09-07T02:53:06;2.70;;;1.15;;
37791;SDS011;29527;55.766;37.570;2023-09-07T02:55:31;2.10;;;0.88;;
37791;SDS011;29527;55.766;37.570;2023-09-07T02:57:57;1.33;;;0.82;;
37791;SDS011;29527;55.766;37.570;2023-09-07T03:00:23;4.05;;;1.10;;
37791;SDS011;29527;55.766;37.570;2023-09-07T03:02:49;4.85;;;1.13;;
37791;SDS011;29527;55.766;37.570;2023-09-07T03:05:17;2.58;;;0.98;;
37791;SDS011;29527;55.766;37.570;2023-09-07T03:07:44;2.65;;;1.10;;
37791;SDS011;29527;55.766;37.570;2023-09-07T03:10:11;3.10;;;0.95;;
37791;SDS011;29527;55.766;37.570;2023-09-07T03:12:37;3.55;;;0.95;;
37791;SDS011;29527;55.766;37.570;2023-09-07T03:15:03;3.78;;;0.90;;
37791;SDS011;29527;55.766;37.570;2023-09-07T03:17:32;3.47;;;1.13;;
37791;SDS011;29527;55.766;37.570;2023-09-07T03:19:59;2.88;;;1.33;;
37791;SDS011;29527;55.766;37.570;2023-09-07T03:22:24;3.38;;;1.05;;
37791;SDS011;29527;55.766;37.570;2023-09-07T03:24:50;1.83;;;0.90;;
37791;SDS011;29527;55.766;37.570;2023-09-07T03:27:17;4.50;;;1.23;;
37791;SDS011;29527;55.766;37.570;2023-09-07T03:29:44;2.45;;;1.10;;
37791;SDS011;29527;55.766;37.570;2023-09-07T03:32:10;3.13;;;0.85;;
37791;SDS011;29527;55.766;37.570;2023-09-07T03:34:36;3.53;;;0.80;;
37791;SDS011;29527;55.766;37.570;2023-09-07T03:37:02;1.30;;;0.80;;
37791;SDS011;29527;55.766;37.570;2023-09-07T03:39:27;2.05;;;0.95;;
37791;SDS011;29527;55.766;37.570;2023-09-07T03:41:53;3.55;;;0.80;;
37791;SDS011;29527;55.766;37.570;2023-09-07T03:44:19;2.65;;;0.90;;
37791;SDS011;29527;55.766;37.570;2023-09-07T03:46:45;2.58;;;0.80;;
37791;SDS011;29527;55.766;37.570;2023-09-07T03:49:10;5.38;;;0.90;;
37791;SDS011;29527;55.766;37.570;2023-09-07T03:51:36;2.25;;;0.80;;
37791;SDS011;29527;55.766;37.570;2023-09-07T03:54:01;0.82;;;0.52;;
37791;SDS011;29527;55.766;37.570;2023-09-07T03:56:27;3.08;;;0.90;;
37791;SDS011;29527;55.766;37.570;2023-09-07T03:58:52;2.97;;;0.70;;
37791;SDS011;29527;55.766;37.570;2023-09-07T04:01:18;2.58;;;0.65;;
37791;SDS011;29527;55.766;37.570;2023-09-07T04:03:43;3.60;;;0.75;;
37791;SDS011;29527;55.766;37.570;2023-09-07T04:06:09;3.45;;;0.98;;
37791;SDS011;29527;55.766;37.570;2023-09-07T04:08:34;2.72;;;0.80;;
37791;SDS011;29527;55.766;37.570;2023-09-07T04:11:04;2.00;;;0.80;;
37791;SDS011;29527;55.766;37.570;2023-09-07T04:13:30;2.13;;;0.70;;
37791;SDS011;29527;55.766;37.570;2023-09-07T04:15:55;4.60;;;1.08;;
37791;SDS011;29527;55.766;37.570;2023-09-07T04:18:21;3.53;;;0.70;;
37791;SDS011;29527;55.766;37.570;2023-09-07T04:20:46;1.95;;;0.95;;
37791;SDS011;29527;55.766;37.570;2023-09-07T04:23:12;4.75;;;0.82;;
37791;SDS011;29527;55.766;37.570;2023-09-07T04:25:37;2.88;;;1.02;;
37791;SDS011;29527;55.766;37.570;2023-09-07T04:28:06;2.13;;;0.75;;
37791;SDS011;29527;55.766;37.570;2023-09-07T04:30:32;2.45;;;1.00;;
37791;SDS011;29527;55.766;37.570;2023-09-07T04:33:02;3.35;;;0.75;;
37791;SDS011;29527;55.766;37.570;2023-09-07T04:35:30;1.50;;;1.13;;
37791;SDS011;29527;55.766;37.570;2023-09-07T04:37:58;2.25;;;0.77;;
37791;SDS011;29527;55.766;37.570;2023-09-07T04:40:24;2.08;;;0.90;;
37791;SDS011;29527;55.766;37.570;2023-09-07T04:42:50;2.85;;;1.08;;
37791;SDS011;29527;55.766;37.570;2023-09-07T04:45:16;1.48;;;0.90;;
37791;SDS011;29527;55.766;37.570;2023-09-07T04:47:42;3.22;;;0.80;;
37791;SDS011;29527;55.766;37.570;2023-09-07T04:50:08;2.47;;;0.70;;
37791;SDS011;29527;55.766;37.570;2023-09-07T04:52:34;2.60;;;0.70;;
37791;SDS011;29527;55.766;37.570;2023-09-07T04:55:00;2.80;;;0.80;;
37791;SDS011;29527;55.766;37.570;2023-09-07T04:57:26;2.28;;;0.68;;
37791;SDS011;29527;55.766;37.570;2023-09-07T04:59:51;1.58;;;0.70;;
37791;SDS011;29527;55.766;37.570;2023-09-07T05:02:17;1.92;;;0.85;;
37791;SDS011;29527;55.766;37.570;2023-09-07T05:04:43;4.43;;;0.70;;
37791;SDS011;29527;55.766;37.570;2023-09-07T05:07:09;0.90;;;0.77;;
37791;SDS011;29527;55.766;37.570;2023-09-07T05:09:34;3.38;;;0.90;;
37791;SDS011;29527;55.766;37.570;2023-09-07T05:12:00;2.03;;;0.75;;
37791;SDS011;29527;55.766;37.570;2023-09-07T05:14:25;2.97;;;0.68;;
37791;SDS011;29527;55.766;37.570;2023-09-07T05:16:51;2.15;;;0.95;;
37791;SDS011;29527;55.766;37.570;2023-09-07T05:19:17;3.75;;;0.90;;
37791;SDS011;29527;55.766;37.570;2023-09-07T05:21:43;1.23;;;0.57;;
37791;SDS011;29527;55.766;37.570;2023-09-07T05:24:09;1.58;;;0.70;;
37791;SDS011;29527;55.766;37.570;2023-09-07T05:26:34;3.42;;;0.60;;
37791;SDS011;29527;55.766;37.570;2023-09-07T05:29:00;3.35;;;0.68;;
37791;SDS011;29527;55.766;37.570;2023-09-07T05:31:25;4.22;;;0.93;;
37791;SDS011;29527;55.766;37.570;2023-09-07T05:33:52;3.20;;;0.77;;
37791;SDS011;29527;55.766;37.570;2023-09-07T05:36:18;2.67;;;0.70;;
37791;SDS011;29527;55.766;37.570;2023-09-07T05:38:43;2.58;;;0.70;;
37791;SDS011;29527;55.766;37.570;2023-09-07T05:41:09;2.83;;;0.70;;
37791;SDS011;29527;55.766;37.570;2023-09-07T05:43:34;3.38;;;0.82;;
37791;SDS011;29527;55.766;37.570;2023-09-07T05:46:00;1.08;;;0.65;;
37791;SDS011;29527;55.766;37.570;2023-09-07T05:48:25;3.63;;;0.80;;
37791;SDS011;29527;55.766;37.570;2023-09-07T05:50:51;4.85;;;0.82;;
37791;SDS011;29527;55.766;37.570;2023-09-07T05:53:18;2.90;;;0.70;;
37791;SDS011;29527;55.766;37.570;2023-09-07T05:55:44;3.05;;;0.80;;
37791;SDS011;29527;55.766;37.570;2023-09-07T05:58:10;0.77;;;0.50;;
37791;SDS011;29527;55.766;37.570;2023-09-07T06:00:35;1.95;;;0.57;;
37791;SDS011;29527;55.766;37.570;2023-09-07T06:03:01;1.92;;;0.60;;
37791;SDS011;29527;55.766;37.570;2023-09-07T06:05:27;1.05;;;0.50;;
37791;SDS011;29527;55.766;37.570;2023-09-07T06:07:52;1.52;;;0.75;;
37791;SDS011;29527;55.766;37.570;2023-09-07T06:10:18;3.83;;;0.77;;
37791;SDS011;29527;55.766;37.570;2023-09-07T06:12:44;3.63;;;0.85;;
37791;SDS011;29527;55.766;37.570;2023-09-07T06:15:10;2.38;;;0.60;;
37791;SDS011;29527;55.766;37.570;2023-09-07T06:17:36;2.70;;;0.80;;
37791;SDS011;29527;55.766;37.570;2023-09-07T06:20:01;3.03;;;0.70;;
37791;SDS011;29527;55.766;37.570;2023-09-07T06:22:29;3.67;;;0.50;;
37791;SDS011;29527;55.766;37.570;2023-09-07T06:24:55;3.10;;;0.77;;
37791;SDS011;29527;55.766;37.570;2023-09-07T06:27:21;3.47;;;0.80;;
37791;SDS011;29527;55.766;37.570;2023-09-07T06:29:47;3.05;;;0.95;;
37791;SDS011;29527;55.766;37.570;2023-09-07T06:32:12;3.10;;;0.70;;
37791;SDS011;29527;55.766;37.570;2023-09-07T06:34:38;4.13;;;0.68;;
37791;SDS011;29527;55.766;37.570;2023-09-07T06:37:04;1.00;;;0.80;;
37791;SDS011;29527;55.766;37.570;2023-09-07T06:39:30;4.13;;;0.80;;
37791;SDS011;29527;55.766;37.570;2023-09-07T06:41:56;3.80;;;0.80;;
37791;SDS011;29527;55.766;37.570;2023-09-07T06:44:21;2.08;;;1.00;;
37791;SDS011;29527;55.766;37.570;2023-09-07T06:46:47;3.28;;;0.90;;
37791;SDS011;29527;55.766;37.570;2023-09-07T06:49:12;1.23;;;0.73;;
37791;SDS011;29527;55.766;37.570;2023-09-07T06:51:38;4.75;;;1.25;;
37791;SDS011;29527;55.766;37.570;2023-09-07T06:54:03;4.82;;;1.00;;
37791;SDS011;29527;55.766;37.570;2023-09-07T06:56:29;1.80;;;0.70;;
37791;SDS011;29527;55.766;37.570;2023-09-07T06:58:56;1.35;;;0.95;;
37791;SDS011;29527;55.766;37.570;2023-09-07T07:01:22;2.88;;;1.00;;
37791;SDS011;29527;55.766;37.570;2023-09-07T07:03:47;2.95;;;0.90;;
37791;SDS011;29527;55.766;37.570;2023-09-07T07:06:14;1.77;;;0.90;;
37791;SDS011;29527;55.766;37.570;2023-09-07T07:08:39;2.67;;;1.00;;
37791;SDS011;29527;55.766;37.570;2023-09-07T07:11:05;2.75;;;0.90;;
37791;SDS011;29527;55.766;37.570;2023-09-07T07:13:31;2.53;;;0.77;;
37791;SDS011;29527;55.766;37.570;2023-09-07T07:15:56;3.03;;;0.88;;
37791;SDS011;29527;55.766;37.570;2023-09-07T07:18:22;2.10;;;0.75;;
37791;SDS011;29527;55.766;37.570;2023-09-07T07:20:48;5.50;;;0.90;;
37791;SDS011;29527;55.766;37.570;2023-09-07T07:23:13;2.83;;;1.10;;
37791;SDS011;29527;55.766;37.570;2023-09-07T07:25:39;2.45;;;1.02;;
37791;SDS011;29527;55.766;37.570;2023-09-07T07:28:04;1.70;;;1.10;;
37791;SDS011;29527;55.766;37.570;2023-09-07T07:30:31;3.92;;;0.90;;
37791;SDS011;29527;55.766;37.570;2023-09-07T07:33:01;6.82;;;1.05;;
37791;SDS011;29527;55.766;37.570;2023-09-07T07:35:29;2.88;;;1.10;;
37791;SDS011;29527;55.766;37.570;2023-09-07T07:37:58;2.08;;;0.95;;
37791;SDS011;29527;55.766;37.570;2023-09-07T07:40:23;2.90;;;1.10;;
37791;SDS011;29527;55.766;37.570;2023-09-07T07:42:51;2.15;;;1.00;;
37791;SDS011;29527;55.766;37.570;2023-09-07T07:45:17;2.95;;;0.93;;
37791;SDS011;29527;55.766;37.570;2023-09-07T07:47:45;3.20;;;1.00;;
37791;SDS011;29527;55.766;37.570;2023-09-07T07:50:11;3.72;;;0.80;;
37791;SDS011;29527;55.766;37.570;2023-09-07T07:52:37;0.65;;;0.65;;
37791;SDS011;29527;55.766;37.570;2023-09-07T07:55:02;5.45;;;1.00;;
37791;SDS011;29527;55.766;37.570;2023-09-07T07:57:31;2.63;;;1.10;;
37791;SDS011;29527;55.766;37.570;2023-09-07T07:59:57;2.33;;;0.85;;
37791;SDS011;29527;55.766;37.570;2023-09-07T08:02:22;2.50;;;1.00;;
37791;SDS011;29527;55.766;37.570;2023-09-07T08:04:48;4.93;;;0.98;;
37791;SDS011;29527;55.766;37.570;2023-09-07T08:07:13;3.90;;;0.82;;
37791;SDS011;29527;55.766;37.570;2023-09-07T08:09:39;1.25;;;0.85;;
37791;SDS011;29527;55.766;37.570;2023-09-07T08:12:05;4.65;;;0.80;;
37791;SDS011;29527;55.766;37.570;2023-09-07T08:14:31;2.85;;;0.75;;
37791;SDS011;29527;55.766;37.570;2023-09-07T08:16:57;1.50;;;0.63;;
37791;SDS011;29527;55.766;37.570;2023-09-07T08:19:24;2.08;;;0.80;;
37791;SDS011;29527;55.766;37.570;2023-09-07T08:21:50;7.50;;;0.80;;
37791;SDS011;29527;55.766;37.570;2023-09-07T08:24:16;2.42;;;0.75;;
37791;SDS011;29527;55.766;37.570;2023-09-07T08:26:42;6.53;;;0.95;;
37791;SDS011;29527;55.766;37.570;2023-09-07T08:29:08;2.65;;;0.90;;
37791;SDS011;29527;55.766;37.570;2023-09-07T08:31:35;5.55;;;0.85;;
37791;SDS011;29527;55.766;37.570;2023-09-07T08:34:01;4.30;;;0.73;;
37791;SDS011;29527;55.766;37.570;2023-09-07T08:36:28;3.03;;;0.90;;
37791;SDS011;29527;55.766;37.570;2023-09-07T08:38:57;4.75;;;0.60;;
37791;SDS011;29527;55.766;37.570;2023-09-07T08:41:26;4.60;;;0.40;;
37791;SDS011;29527;55.766;37.570;2023-09-07T08:43:53;5.97;;;0.60;;
37791;SDS011;29527;55.766;37.570;2023-09-07T08:46:20;6.57;;;0.80;;
37791;SDS011;29527;55.766;37.570;2023-09-07T08:48:48;6.13;;;0.80;;
37791;SDS011;29527;55.766;37.570;2023-09-07T08:51:15;3.88;;;0.65;;
37791;SDS011;29527;55.766;37.570;2023-09-07T08:53:42;7.72;;;0.60;;
37791;SDS011;29527;55.766;37.570;2023-09-07T08:56:14;4.38;;;0.40;;
37791;SDS011;29527;55.766;37.570;2023-09-07T08:58:41;3.70;;;0.55;;
37791;SDS011;29527;55.766;37.570;2023-09-07T09:01:07;3.42;;;0.50;;
37791;SDS011;29527;55.766;37.570;2023-09-07T09:03:36;2.03;;;0.60;;
37791;SDS011;29527;55.766;37.570;2023-09-07T09:06:03;4.53;;;0.93;;
37791;SDS011;29527;55.766;37.570;2023-09-07T09:08:40;6.47;;;0.90;;
37791;SDS011;29527;55.766;37.570;2023-09-07T09:11:14;4.50;;;0.77;;
37791;SDS011;29527;55.766;37.570;2023-09-07T09:13:41;5.38;;;0.50;;
37791;SDS011;29527;55.766;37.570;2023-09-07T09:16:07;2.72;;;0.70;;
37791;SDS011;29527;55.766;37.570;2023-09-07T09:18:33;5.00;;;0.57;;
37791;SDS011;29527;55.766;37.570;2023-09-07T09:20:59;2.35;;;0.50;;
37791;SDS011;29527;55.766;37.570;2023-09-07T09:23:29;4.65;;;0.50;;
37791;SDS011;29527;55.766;37.570;2023-09-07T09:25:59;5.53;;;0.45;;
37791;SDS011;29527;55.766;37.570;2023-09-07T09:28:26;4.75;;;0.60;;
37791;SDS011;29527;55.766;37.570;2023-09-07T09:30:53;10.32;;;0.68;;
37791;SDS011;29527;55.766;37.570;2023-09-07T09:33:20;14.15;;;1.17;;
37791;SDS011;29527;55.766;37.570;2023-09-07T09:35:46;20.35;;;1.13;;
37791;SDS011;29527;55.766;37.570;2023-09-07T09:38:12;6.90;;;0.70;;
37791;SDS011;29527;55.766;37.570;2023-09-07T09:40:38;3.45;;;0.52;;
37791;SDS011;29527;55.766;37.570;2023-09-07T09:43:04;5.32;;;0.80;;
37791;SDS011;29527;55.766;37.570;2023-09-07T09:45:31;2.47;;;0.30;;
37791;SDS011;29527;55.766;37.570;2023-09-07T09:47:57;8.43;;;0.95;;
37791;SDS011;29527;55.766;37.570;2023-09-07T09:50:25;8.77;;;0.65;;
37791;SDS011;29527;55.766;37.570;2023-09-07T09:52:51;6.75;;;0.77;;
37791;SDS011;29527;55.766;37.570;2023-09-07T09:55:18;4.50;;;0.50;;
37791;SDS011;29527;55.766;37.570;2023-09-07T09:57:44;2.13;;;0.60;;
37791;SDS011;29527;55.766;37.570;2023-09-07T10:00:09;2.17;;;0.52;;
37791;SDS011;29527;55.766;37.570;2023-09-07T10:02:48;3.85;;;0.63;;
37791;SDS011;29527;55.766;37.570;2023-09-07T10:05:17;2.00;;;0.40;;
37791;SDS011;29527;55.766;37.570;2023-09-07T10:07:44;2.70;;;0.55;;
37791;SDS011;29527;55.766;37.570;2023-09-07T10:10:13;3.75;;;0.52;;
37791;SDS011;29527;55.766;37.570;2023-09-07T10:12:40;1.80;;;0.57;;
37791;SDS011;29527;55.766;37.570;2023-09-07T10:15:19;6.55;;;0.77;;
37791;SDS011;29527;55.766;37.570;2023-09-07T10:17:45;9.55;;;1.00;;
37791;SDS011;29527;55.766;37.570;2023-09-07T10:20:11;10.68;;;0.90;;
37791;SDS011;29527;55.766;37.570;2023-09-07T10:22:37;5.93;;;0.50;;
37791;SDS011;29527;55.766;37.570;2023-09-07T10:25:03;7.30;;;0.70;;
37791;SDS011;29527;55.766;37.570;2023-09-07T10:27:36;5.30;;;0.70;;
37791;SDS011;29527;55.766;37.570;2023-09-07T10:30:02;2.20;;;0.90;;
37791;SDS011;29527;55.766;37.570;2023-09-07T10:32:38;1.83;;;0.70;;
37791;SDS011;29527;55.766;37.570;2023-09-07T10:35:15;7.38;;;0.80;;
37791;SDS011;29527;55.766;37.570;2023-09-07T10:37:46;2.35;;;0.50;;
37791;SDS011;29527;55.766;37.570;2023-09-07T10:40:12;1.08;;;0.50;;
37791;SDS011;29527;55.766;37.570;2023-09-07T10:42:41;2.88;;;0.70;;
37791;SDS011;29527;55.766;37.570;2023-09-07T10:45:10;1.23;;;0.52;;
37791;SDS011;29527;55.766;37.570;2023-09-07T10:47:41;0.77;;;0.68;;
37791;SDS011;29527;55.766;37.570;2023-09-07T10:50:10;1.58;;;0.50;;
37791;SDS011;29527;55.766;37.570;2023-09-07T10:52:37;3.42;;;0.70;;
37791;SDS011;29527;55.766;37.570;2023-09-07T10:55:03;6.90;;;0.70;;
37791;SDS011;29527;55.766;37.570;2023-09-07T10:57:29;2.63;;;0.60;;
37791;SDS011;29527;55.766;37.570;2023-09-07T10:59:55;4.13;;;0.80;;
37791;SDS011;29527;55.766;37.570;2023-09-07T11:02:20;9.48;;;1.63;;
37791;SDS011;29527;55.766;37.570;2023-09-07T11:04:46;4.68;;;1.52;;
37791;SDS011;29527;55.766;37.570;2023-09-07T11:07:11;5.63;;;2.00;;
37791;SDS011;29527;55.766;37.570;2023-09-07T11:09:41;5.55;;;3.92;;
37791;SDS011;29527;55.766;37.570;2023-09-07T11:12:07;4.82;;;1.25;;
37791;SDS011;29527;55.766;37.570;2023-09-07T11:14:34;3.58;;;0.77;;
37791;SDS011;29527;55.766;37.570;2023-09-07T11:17:02;3.67;;;0.77;;
37791;SDS011;29527;55.766;37.570;2023-09-07T11:19:31;0.95;;;0.50;;
37791;SDS011;29527;55.766;37.570;2023-09-07T11:21:58;5.43;;;0.82;;
37791;SDS011;29527;55.766;37.570;2023-09-07T11:24:24;2.65;;;0.75;;
37791;SDS011;29527;55.766;37.570;2023-09-07T11:26:51;1.85;;;0.57;;
37791;SDS011;29527;55.766;37.570;2023-09-07T11:29:17;2.40;;;0.98;;
37791;SDS011;29527;55.766;37.570;2023-09-07T11:31:44;3.00;;;0.77;;
37791;SDS011;29527;55.766;37.570;2023-09-07T11:34:10;3.08;;;0.80;;
37791;SDS011;29527;55.766;37.570;2023-09-07T11:36:36;5.47;;;0.88;;
37791;SDS011;29527;55.766;37.570;2023-09-07T11:39:02;4.28;;;0.68;;
37791;SDS011;29527;55.766;37.570;2023-09-07T11:41:43;2.58;;;0.88;;
37791;SDS011;29527;55.766;37.570;2023-09-07T11:44:10;2.20;;;0.88;;
37791;SDS011;29527;55.766;37.570;2023-09-07T11:46:37;3.45;;;0.95;;
37791;SDS011;29527;55.766;37.570;2023-09-07T11:49:02;4.65;;;0.90;;
37791;SDS011;29527;55.766;37.570;2023-09-07T11:51:30;3.75;;;0.70;;
37791;SDS011;29527;55.766;37.570;2023-09-07T11:53:56;2.45;;;0.60;;
37791;SDS011;29527;55.766;37.570;2023-09-07T11:56:21;5.43;;;0.60;;
37791;SDS011;29527;55.766;37.570;2023-09-07T11:58:47;3.60;;;0.80;;
37791;SDS011;29527;55.766;37.570;2023-09-07T12:01:13;1.73;;;0.77;;
37791;SDS011;29527;55.766;37.570;2023-09-07T12:03:41;2.50;;;0.77;;
37791;SDS011;29527;55.766;37.570;2023-09-07T12:06:08;2.20;;;0.70;;
37791;SDS011;29527;55.766;37.570;2023-09-07T12:08:34;3.65;;;0.55;;
37791;SDS011;29527;55.766;37.570;2023-09-07T12:11:00;3.03;;;0.52;;
37791;SDS011;29527;55.766;37.570;2023-09-07T12:13:26;5.53;;;0.65;;
37791;SDS011;29527;55.766;37.570;2023-09-07T12:15:52;3.20;;;1.20;;
37791;SDS011;29527;55.766;37.570;2023-09-07T12:18:17;2.08;;;0.85;;
37791;SDS011;29527;55.766;37.570;2023-09-07T12:20:43;3.42;;;0.68;;
37791;SDS011;29527;55.766;37.570;2023-09-07T12:23:10;0.98;;;0.57;;
37791;SDS011;29527;55.766;37.570;2023-09-07T12:25:35;6.32;;;0.95;;
37791;SDS011;29527;55.766;37.570;2023-09-07T12:28:02;2.42;;;0.77;;
37791;SDS011;29527;55.766;37.570;2023-09-07T12:30:28;3.13;;;0.70;;
37791;SDS011;29527;55.766;37.570;2023-09-07T12:32:54;6.47;;;0.60;;
37791;SDS011;29527;55.766;37.570;2023-09-07T12:35:19;1.92;;;0.80;;
37791;SDS011;29527;55.766;37.570;2023-09-07T12:37:46;1.63;;;0.82;;
37791;SDS011;29527;55.766;37.570;2023-09-07T12:40:11;2.00;;;0.70;;
37791;SDS011;29527;55.766;37.570;2023-09-07T12:42:40;6.03;;;0.70;;
37791;SDS011;29527;55.766;37.570;2023-09-07T12:45:08;3.33;;;0.70;;
37791;SDS011;29527;55.766;37.570;2023-09-07T12:47:36;9.48;;;0.63;;
37791;SDS011;29527;55.766;37.570;2023-09-07T12:50:01;2.70;;;0.60;;
37791;SDS011;29527;55.766;37.570;2023-09-07T12:52:29;4.60;;;0.85;;
37791;SDS011;29527;55.766;37.570;2023-09-07T12:54:55;2.72;;;0.60;;
37791;SDS011;29527;55.766;37.570;2023-09-07T12:57:21;3.53;;;0.88;;
37791;SDS011;29527;55.766;37.570;2023-09-07T12:59:46;4.05;;;0.90;;
37791;SDS011;29527;55.766;37.570;2023-09-07T13:02:12;1.20;;;0.55;;
37791;SDS011;29527;55.766;37.570;2023-09-07T13:04:37;3.80;;;0.80;;
37791;SDS011;29527;55.766;37.570;2023-09-07T13:07:03;3.97;;;0.75;;
37791;SDS011;29527;55.766;37.570;2023-09-07T13:09:28;4.32;;;1.00;;
37791;SDS011;29527;55.766;37.570;2023-09-07T13:11:54;3.53;;;0.90;;
37791;SDS011;29527;55.766;37.570;2023-09-07T13:14:19;4.20;;;0.70;;
37791;SDS011;29527;55.766;37.570;2023-09-07T13:16:45;3.53;;;1.10;;
37791;SDS011;29527;55.766;37.570;2023-09-07T13:19:10;5.28;;;0.80;;
37791;SDS011;29527;55.766;37.570;2023-09-07T13:21:36;5.30;;;1.25;;
37791;SDS011;29527;55.766;37.570;2023-09-07T13:24:03;7.40;;;1.10;;
37791;SDS011;29527;55.766;37.570;2023-09-07T13:26:28;3.08;;;0.77;;
37791;SDS011;29527;55.766;37.570;2023-09-07T13:28:54;4.65;;;0.70;;
37791;SDS011;29527;55.766;37.570;2023-09-07T13:31:19;2.45;;;0.88;;
37791;SDS011;29527;55.766;37.570;2023-09-07T13:33:45;3.80;;;0.80;;
37791;SDS011;29527;55.766;37.570;2023-09-07T13:36:10;8.07;;;1.08;;
37791;SDS011;29527;55.766;37.570;2023-09-07T13:38:36;15.60;;;1.05;;
37791;SDS011;29527;55.766;37.570;2023-09-07T13:41:02;9.30;;;1.13;;
37791;SDS011;29527;55.766;37.570;2023-09-07T13:43:27;2.33;;;0.70;;
37791;SDS011;29527;55.766;37.570;2023-09-07T13:45:53;4.47;;;0.80;;
37791;SDS011;29527;55.766;37.570;2023-09-07T13:48:18;2.97;;;0.65;;
37791;SDS011;29527;55.766;37.570;2023-09-07T13:50:44;3.50;;;0.90;;
37791;SDS011;29527;55.766;37.570;2023-09-07T13:53:09;4.63;;;0.80;;
37791;SDS011;29527;55.766;37.570;2023-09-07T13:55:35;2.53;;;0.70;;
37791;SDS011;29527;55.766;37.570;2023-09-07T13:58:00;4.60;;;1.10;;
37791;SDS011;29527;55.766;37.570;2023-09-07T14:00:26;3.90;;;0.68;;
37791;SDS011;29527;55.766;37.570;2023-09-07T14:02:51;3.63;;;0.95;;
37791;SDS011;29527;55.766;37.570;2023-09-07T14:05:18;2.20;;;0.85;;
37791;SDS011;29527;55.766;37.570;2023-09-07T14:07:43;2.58;;;0.80;;
37791;SDS011;29527;55.766;37.570;2023-09-07T14:10:09;4.82;;;0.98;;
37791;SDS011;29527;55.766;37.570;2023-09-07T14:12:35;1.77;;;1.05;;
37791;SDS011;29527;55.766;37.570;2023-09-07T14:15:00;3.45;;;1.10;;
37791;SDS011;29527;55.766;37.570;2023-09-07T14:17:26;3.15;;;1.15;;
37791;SDS011;29527;55.766;37.570;2023-09-07T14:19:51;1.90;;;0.95;;
37791;SDS011;29527;55.766;37.570;2023-09-07T14:22:17;5.10;;;0.88;;
37791;SDS011;29527;55.766;37.570;2023-09-07T14:24:42;6.93;;;0.80;;
37791;SDS011;29527;55.766;37.570;2023-09-07T14:27:08;5.80;;;1.00;;
37791;SDS011;29527;55.766;37.570;2023-09-07T14:29:34;1.15;;;0.70;;